Time;durP1;ratioP1;P1;durP2;ratioP2;P2;SDS_P1;SDS_P2;PMS_P1;PMS_P2;Temp;Humidity;BMP_temperature;BMP_pressure;BME280_temperature;BME280_humidity;BME280_pressure;Samples;Min_cycle;Max_cycle;Signal;HPM_P1;HPM_P2
2022/09/07 00:02:24;;;;;;;11.52;10.25;;;18.30;99.90;;;;;;5104301;27;20039;-66
2022/09/07 00:04:50;;;;;;;11.75;9.48;;;18.30;99.90;;;;;;5132498;27;20048;-66
2022/09/07 00:07:15;;;;;;;10.88;8.57;;;18.40;99.90;;;;;;5119104;27;20073;-66
2022/09/07 00:09:41;;;;;;;10.27;9.23;;;18.30;99.90;;;;;;5112475;27;20062;-66
2022/09/07 00:12:07;;;;;;;10.60;9.13;;;18.30;99.90;;;;;;5136710;27;20046;-65
2022/09/07 00:14:33;;;;;;;12.20;10.38;;;18.30;99.90;;;;;;5152563;27;20050;-65
2022/09/07 00:16:58;;;;;;;10.88;9.45;;;18.40;99.90;;;;;;5131598;27;20540;-66
2022/09/07 00:19:24;;;;;;;11.18;10.07;;;18.40;99.90;;;;;;5135341;27;20121;-65
2022/09/07 00:21:50;;;;;;;10.88;9.88;;;18.40;99.90;;;;;;5135777;27;20054;-66
2022/09/07 00:24:15;;;;;;;13.63;10.02;;;18.40;99.90;;;;;;5115481;27;20193;-66
2022/09/07 00:26:41;;;;;;;11.82;10.10;;;18.30;99.90;;;;;;5137649;27;20043;-66
2022/09/07 00:29:06;;;;;;;10.73;9.70;;;18.40;99.90;;;;;;5135711;27;20035;-65
2022/09/07 00:31:32;;;;;;;11.40;10.20;;;18.30;99.90;;;;;;5107521;28;20055;-66
2022/09/07 00:34:00;;;;;;;10.25;9.25;;;18.30;99.90;;;;;;5108970;27;20116;-66
2022/09/07 00:36:26;;;;;;;9.70;8.90;;;18.30;99.90;;;;;;5103611;27;20470;-66
2022/09/07 00:38:52;;;;;;;9.73;8.88;;;18.30;99.90;;;;;;5112329;28;20075;-66
2022/09/07 00:41:19;;;;;;;12.55;9.95;;;18.30;99.90;;;;;;5129257;27;20048;-66
2022/09/07 00:43:57;;;;;;;13.43;10.13;;;18.30;99.90;;;;;;5099274;28;20180;-66
2022/09/07 00:46:25;;;;;;;11.10;9.98;;;18.30;99.90;;;;;;5116979;27;20103;-66
2022/09/07 00:48:51;;;;;;;10.75;9.70;;;18.20;99.90;;;;;;5111608;27;20551;-66
2022/09/07 00:51:23;;;;;;;13.02;10.85;;;18.20;99.90;;;;;;5135320;27;20124;-66
2022/09/07 00:53:53;;;;;;;;;;;18.10;99.90;;;;;;5135412;27;20050;-66
2022/09/07 00:56:22;;;;;;;14.32;10.93;;;18.00;99.90;;;;;;5113017;28;19922;-66
2022/09/07 00:58:48;;;;;;;12.70;11.43;;;17.90;99.90;;;;;;5137906;27;20082;-66
2022/09/07 01:01:16;;;;;;;13.30;12.02;;;17.90;99.90;;;;;;5135282;27;20088;-66
2022/09/07 01:03:46;;;;;;;14.65;12.40;;;17.90;99.90;;;;;;5134483;27;20043;-66
2022/09/07 01:06:17;;;;;;;14.30;12.55;;;17.80;99.90;;;;;;5116696;27;20035;-67
2022/09/07 01:08:46;;;;;;;14.00;12.27;;;17.80;99.90;;;;;;5132390;27;20043;-66
2022/09/07 01:11:11;;;;;;;14.63;13.20;;;17.80;99.90;;;;;;5105008;28;20051;-67
2022/09/07 01:13:43;;;;;;;15.65;13.85;;;17.70;99.90;;;;;;5124747;27;20039;-66
2022/09/07 01:16:21;;;;;;;21.00;15.23;;;17.70;99.90;;;;;;5124008;27;20057;-67
2022/09/07 01:19:01;;;;;;;15.80;13.25;;;17.60;99.90;;;;;;5114844;27;20387;-67
2022/09/07 01:21:30;;;;;;;16.65;14.85;;;17.60;99.90;;;;;;5114596;27;20160;-67
2022/09/07 01:24:20;;;;;;;19.08;14.43;;;17.60;99.90;;;;;;5130086;27;20054;-66
2022/09/07 01:27:23;;;;;;;18.30;16.50;;;17.60;99.90;;;;;;5126577;27;20063;-67
2022/09/07 01:29:59;;;;;;;17.40;15.70;;;17.60;99.90;;;;;;5115277;28;20127;-67
2022/09/07 01:32:48;;;;;;;22.45;16.73;;;17.60;99.90;;;;;;5127446;27;20047;-67
2022/09/07 01:35:45;;;;;;;18.92;16.75;;;17.60;99.90;;;;;;5133410;27;20436;-67
2022/09/07 01:38:51;;;;;;;21.50;16.77;;;17.60;99.90;;;;;;5101880;27;20043;-67
2022/09/07 01:41:37;;;;;;;21.63;17.17;;;17.60;99.90;;;;;;5049371;28;20044;-68
2022/09/07 01:44:14;;;;;;;22.00;18.00;;;17.60;99.90;;;;;;5116745;27;20047;-69
2022/09/07 01:47:06;;;;;;;24.33;17.35;;;17.60;99.90;;;;;;5104393;28;20471;-69
2022/09/07 01:49:56;;;;;;;20.73;18.52;;;17.60;99.90;;;;;;5130750;27;20047;-69
2022/09/07 01:52:36;;;;;;;19.42;17.42;;;17.60;99.90;;;;;;5121738;27;20117;-69
2022/09/07 01:55:09;;;;;;;20.00;18.00;;;17.60;99.90;;;;;;5134253;27;20333;-69
2022/09/07 01:57:42;;;;;;;21.77;19.48;;;17.60;99.90;;;;;;5130656;27;20143;-69
2022/09/07 02:00:13;;;;;;;21.20;19.10;;;17.60;99.90;;;;;;5120004;27;20467;-69
2022/09/07 02:02:44;;;;;;;24.60;19.23;;;17.50;99.90;;;;;;5123100;27;20058;-69
2022/09/07 02:05:15;;;;;;;22.48;18.65;;;17.50;99.90;;;;;;5128590;27;20043;-69
2022/09/07 02:07:45;;;;;;;22.83;20.42;;;17.50;99.90;;;;;;5130377;27;20043;-69
2022/09/07 02:10:28;;;;;;;27.45;21.05;;;17.50;99.90;;;;;;5133324;27;20047;-69
2022/09/07 02:13:05;;;;;;;23.27;20.80;;;17.50;99.90;;;;;;5124334;27;20083;-69
2022/09/07 02:15:41;;;;;;;22.33;19.98;;;17.50;99.90;;;;;;5131806;27;20395;-69
2022/09/07 02:18:09;;;;;;;21.92;19.60;;;17.50;99.90;;;;;;5115442;27;20394;-70
2022/09/07 02:20:37;;;;;;;22.90;20.50;;;17.50;99.90;;;;;;5130173;27;20051;-69
2022/09/07 02:23:14;;;;;;;23.23;20.63;;;17.40;99.90;;;;;;5128818;27;20487;-69
2022/09/07 02:25:44;;;;;;;23.58;21.00;;;17.40;99.90;;;;;;5134595;27;20091;-69
2022/09/07 02:28:16;;;;;;;23.42;21.02;;;17.40;99.90;;;;;;5133239;27;20434;-69
2022/09/07 02:30:42;;;;;;;;;;;17.40;99.90;;;;;;5135930;27;20042;-70
2022/09/07 02:33:09;;;;;;;21.05;19.10;;;17.40;99.90;;;;;;5131340;27;20332;-70
2022/09/07 02:35:35;;;;;;;20.27;18.17;;;17.30;99.90;;;;;;5147983;27;20088;-69
2022/09/07 02:38:04;;;;;;;19.95;17.95;;;17.30;99.90;;;;;;5129850;27;20047;-69
2022/09/07 02:40:29;;;;;;;22.40;20.23;;;17.40;99.90;;;;;;5098091;27;20035;-69
2022/09/07 02:42:59;;;;;;;19.38;17.52;;;17.40;99.90;;;;;;5114256;27;20045;-69
2022/09/07 02:45:32;;;;;;;19.65;17.63;;;17.30;99.90;;;;;;5132224;27;20971;-69
2022/09/07 02:48:06;;;;;;;19.08;17.23;;;17.30;99.90;;;;;;5140966;27;20043;-69
2022/09/07 02:50:43;;;;;;;19.73;17.80;;;17.30;99.90;;;;;;5134083;27;20112;-69
2022/09/07 02:53:34;;;;;;;18.58;16.58;;;17.20;99.90;;;;;;5095268;28;20055;-69
2022/09/07 02:56:05;;;;;;;19.50;17.70;;;17.20;99.90;;;;;;5119321;27;20031;-69
2022/09/07 02:58:44;;;;;;;19.98;17.88;;;17.10;99.90;;;;;;5124786;27;20047;-69
2022/09/07 03:01:32;;;;;;;18.90;17.10;;;17.10;99.90;;;;;;5129724;27;20050;-69
2022/09/07 03:04:13;;;;;;;20.52;18.52;;;17.10;99.90;;;;;;5117868;27;20044;-69
2022/09/07 03:06:43;;;;;;;20.73;18.73;;;17.10;99.90;;;;;;5118974;27;20057;-70
2022/09/07 03:09:15;;;;;;;19.83;17.83;;;17.10;99.90;;;;;;5116088;27;20040;-70
2022/09/07 03:11:41;;;;;;;20.60;18.60;;;17.00;99.90;;;;;;5127788;28;20384;-70
2022/09/07 03:14:18;;;;;;;20.02;18.20;;;17.00;99.90;;;;;;5118264;27;20459;-70
2022/09/07 03:16:46;;;;;;;20.63;18.48;;;17.00;99.90;;;;;;5124987;27;20050;-70
2022/09/07 03:19:12;;;;;;;20.02;17.88;;;17.00;99.90;;;;;;5113937;28;20043;-70
2022/09/07 03:21:37;;;;;;;20.08;18.08;;;17.00;99.90;;;;;;5116363;28;20039;-70
2022/09/07 03:24:04;;;;;;;20.30;18.30;;;17.00;99.90;;;;;;5134282;28;20058;-70
2022/09/07 03:26:29;;;;;;;22.05;19.00;;;17.00;99.90;;;;;;5129610;28;20055;-70
2022/09/07 03:28:55;;;;;;;20.52;18.42;;;17.00;99.90;;;;;;5131657;28;20446;-70
2022/09/07 03:31:21;;;;;;;21.98;19.27;;;17.00;99.90;;;;;;5114256;28;20056;-70
2022/09/07 03:33:47;;;;;;;17.95;16.20;;;17.00;99.90;;;;;;5132005;27;20039;-70
2022/09/07 03:36:12;;;;;;;18.45;16.65;;;17.00;99.90;;;;;;5106572;28;20046;-70
2022/09/07 03:38:38;;;;;;;20.02;18.20;;;17.00;99.90;;;;;;5133147;28;20035;-70
2022/09/07 03:41:05;;;;;;;20.48;18.10;;;17.00;99.90;;;;;;5125249;28;20423;-70
2022/09/07 03:43:32;;;;;;;17.27;15.75;;;17.00;99.90;;;;;;5124002;28;20115;-70
2022/09/07 03:45:59;;;;;;;19.35;17.35;;;17.00;99.90;;;;;;5132226;28;20479;-70
2022/09/07 03:48:26;;;;;;;18.65;16.75;;;17.00;99.90;;;;;;5128894;28;20058;-70
2022/09/07 03:50:59;;;;;;;18.10;16.23;;;17.00;99.90;;;;;;5144583;27;20035;-70
2022/09/07 03:53:25;;;;;;;19.88;17.98;;;16.90;99.90;;;;;;5099190;28;20055;-70
2022/09/07 03:56:00;;;;;;;20.30;18.17;;;16.90;99.90;;;;;;5137531;27;20377;-70
2022/09/07 03:58:27;;;;;;;20.35;18.42;;;16.90;99.90;;;;;;5132118;28;20086;-70
2022/09/07 04:00:52;;;;;;;19.00;17.08;;;16.90;99.90;;;;;;5133926;28;20353;-70
2022/09/07 04:03:18;;;;;;;18.77;16.55;;;16.90;99.90;;;;;;5122433;27;20164;-70
2022/09/07 04:05:47;;;;;;;19.60;16.27;;;16.90;99.90;;;;;;5101888;28;20316;-70
2022/09/07 04:08:12;;;;;;;20.15;18.15;;;16.90;99.90;;;;;;5131206;28;20031;-70
2022/09/07 04:10:39;;;;;;;17.23;15.60;;;17.00;99.90;;;;;;5122272;28;20035;-71
2022/09/07 04:13:05;;;;;;;18.88;17.08;;;16.90;99.90;;;;;;5116893;28;20068;-71
2022/09/07 04:15:31;;;;;;;18.63;16.73;;;16.90;99.90;;;;;;5148358;27;20047;-70
2022/09/07 04:17:57;;;;;;;18.23;16.42;;;16.90;99.90;;;;;;5108912;28;20043;-71
2022/09/07 04:20:24;;;;;;;20.13;17.88;;;16.90;99.90;;;;;;5114300;28;20046;-70
2022/09/07 04:22:50;;;;;;;18.95;15.38;;;16.90;99.90;;;;;;5102290;28;20035;-70
2022/09/07 04:25:16;;;;;;;20.55;17.95;;;16.80;99.90;;;;;;5114267;28;20430;-70
2022/09/07 04:27:41;;;;;;;19.30;17.38;;;16.80;99.90;;;;;;5140329;27;20044;-70
2022/09/07 04:30:08;;;;;;;19.50;17.45;;;16.80;99.90;;;;;;5116308;28;20493;-70
2022/09/07 04:32:33;;;;;;;19.38;17.10;;;16.80;99.90;;;;;;5117278;27;20047;-70
2022/09/07 04:34:59;;;;;;;18.90;17.00;;;16.80;99.90;;;;;;5115790;27;20053;-70
2022/09/07 04:37:24;;;;;;;18.30;16.42;;;16.80;99.90;;;;;;5135340;27;20175;-71
2022/09/07 04:39:50;;;;;;;18.35;16.50;;;16.80;99.90;;;;;;5136061;27;20043;-70
2022/09/07 04:42:16;;;;;;;18.30;16.60;;;16.80;99.90;;;;;;5133714;27;20498;-71
2022/09/07 04:44:42;;;;;;;18.98;17.08;;;16.80;99.90;;;;;;5117007;28;20043;-70
2022/09/07 04:47:08;;;;;;;20.08;17.98;;;16.80;99.90;;;;;;5112859;27;20502;-70
2022/09/07 04:49:34;;;;;;;19.23;17.30;;;16.80;99.90;;;;;;5101299;27;20043;-69
2022/09/07 04:56:00;;;;;;;18.65;16.83;;;16.90;99.90;;;;;;5125575;27;20062;-71
2022/09/07 05:02:56;;;;;;;20.23;18.33;;;16.90;99.90;;;;;;5126038;27;20069;-71
2022/09/07 05:05:56;;;;;;;19.48;17.48;;;17.00;99.90;;;;;;5118762;27;20079;-70
2022/09/07 05:09:11;;;;;;;17.48;15.80;;;17.00;99.90;;;;;;5116169;27;20371;-70
2022/09/07 05:11:43;;;;;;;19.63;16.50;;;17.00;99.90;;;;;;5114438;27;20059;-71
2022/09/07 05:14:37;;;;;;;18.65;16.70;;;17.00;99.90;;;;;;5109055;28;20345;-70
2022/09/07 05:17:03;;;;;;;18.23;16.63;;;17.00;99.90;;;;;;5130158;27;20047;-69
2022/09/07 05:19:29;;;;;;;17.95;16.33;;;17.00;99.90;;;;;;5124058;27;20054;-69
2022/09/07 05:21:56;;;;;;;20.52;18.50;;;17.00;99.90;;;;;;5118045;27;20047;-71
2022/09/07 05:24:21;;;;;;;20.58;18.55;;;17.10;99.90;;;;;;5111087;28;20548;-71
2022/09/07 05:26:47;;;;;;;20.92;18.80;;;17.00;99.90;;;;;;5097113;28;20036;-70
2022/09/07 05:29:13;;;;;;;20.20;18.15;;;17.00;99.90;;;;;;5110736;28;20039;-70
2022/09/07 05:31:39;;;;;;;21.17;18.95;;;17.00;99.90;;;;;;5097480;28;20123;-70
2022/09/07 05:34:05;;;;;;;21.55;19.35;;;17.00;99.90;;;;;;5105345;28;20094;-70
2022/09/07 05:36:32;;;;;;;20.63;18.67;;;17.10;99.90;;;;;;5104526;28;20046;-71
2022/09/07 05:38:58;;;;;;;21.83;19.63;;;17.00;99.90;;;;;;5084700;28;20048;-71
2022/09/07 05:41:25;;;;;;;22.38;20.20;;;17.00;99.90;;;;;;5106797;28;20047;-69
2022/09/07 05:44:16;;;;;;;23.45;19.38;;;17.00;99.90;;;;;;5112014;28;20054;-69
2022/09/07 05:46:42;;;;;;;23.25;20.92;;;17.00;99.90;;;;;;5094324;28;20123;-71
2022/09/07 05:49:08;;;;;;;24.40;21.88;;;17.00;99.90;;;;;;5096181;28;20168;-70
2022/09/07 05:51:35;;;;;;;20.45;18.25;;;17.00;99.90;;;;;;5113539;28;20039;-69
2022/09/07 05:54:01;;;;;;;22.35;19.77;;;17.00;99.90;;;;;;5106634;28;20044;-69
2022/09/07 05:56:27;;;;;;;24.65;22.20;;;17.10;99.90;;;;;;5107673;28;20428;-69
2022/09/07 05:59:17;;;;;;;24.40;22.05;;;17.10;99.90;;;;;;5114922;28;20050;-68
2022/09/07 06:02:11;;;;;;;24.13;21.83;;;17.10;99.90;;;;;;5113984;28;20055;-70
2022/09/07 06:04:37;;;;;;;21.27;19.17;;;17.10;99.90;;;;;;5113776;28;20047;-70
2022/09/07 06:07:03;;;;;;;22.08;19.85;;;17.10;99.90;;;;;;5096009;28;20043;-70
2022/09/07 06:09:53;;;;;;;23.23;21.02;;;17.20;99.90;;;;;;5114662;28;20046;-70
2022/09/07 06:12:47;;;;;;;23.13;20.80;;;17.20;99.90;;;;;;5093957;28;20036;-70
2022/09/07 06:15:13;;;;;;;24.15;21.67;;;17.30;99.90;;;;;;5075588;28;20468;-70
2022/09/07 06:17:38;;;;;;;25.63;22.92;;;17.30;99.90;;;;;;5109756;28;20047;-71
2022/09/07 06:20:06;;;;;;;27.55;23.10;;;17.30;99.90;;;;;;5097152;28;20038;-70
2022/09/07 06:22:35;;;;;;;28.42;25.50;;;17.40;99.90;;;;;;5111867;28;20119;-70
2022/09/07 06:25:01;;;;;;;24.58;22.10;;;17.30;99.90;;;;;;5113930;28;20054;-69
2022/09/07 06:27:27;;;;;;;29.10;25.77;;;17.40;99.90;;;;;;5094532;28;20047;-69
2022/09/07 06:29:52;;;;;;;27.25;24.50;;;17.40;99.90;;;;;;5114247;28;20047;-69
2022/09/07 06:32:18;;;;;;;28.52;25.60;;;17.40;99.90;;;;;;5114201;28;20353;-69
2022/09/07 06:34:44;;;;;;;27.95;25.08;;;17.40;99.90;;;;;;5114109;28;20036;-69
2022/09/07 06:37:09;;;;;;;30.52;27.35;;;17.40;99.90;;;;;;5113886;28;20055;-69
2022/09/07 06:39:35;;;;;;;28.20;25.02;;;17.50;99.90;;;;;;5113466;28;20036;-69
2022/09/07 06:42:03;;;;;;;31.38;26.40;;;17.50;99.90;;;;;;5112215;28;20043;-69
2022/09/07 06:44:29;;;;;;;29.75;26.70;;;17.60;99.90;;;;;;5113790;28;20043;-69
2022/09/07 06:46:55;;;;;;;31.30;27.60;;;17.80;99.90;;;;;;5093866;27;20069;-69
2022/09/07 06:49:22;;;;;;;31.30;26.50;;;17.60;99.90;;;;;;5096515;28;20127;-70
2022/09/07 06:51:48;;;;;;;27.33;23.92;;;17.80;99.90;;;;;;5080918;28;20044;-69
2022/09/07 06:54:38;;;;;;;27.52;24.63;;;17.80;99.90;;;;;;5074682;28;20133;-70
2022/09/07 06:57:07;;;;;;;25.77;23.08;;;17.80;99.90;;;;;;5092960;28;20471;-71
2022/09/07 06:59:36;;;;;;;28.05;25.08;;;17.80;99.90;;;;;;5117790;27;20048;-71
2022/09/07 07:02:02;;;;;;;28.55;25.42;;;17.80;99.90;;;;;;5107623;28;20055;-71
2022/09/07 07:04:28;;;;;;;28.23;24.77;;;17.80;99.90;;;;;;5087794;28;20506;-71
2022/09/07 07:06:53;;;;;;;25.90;23.20;;;17.80;99.90;;;;;;5090228;28;20043;-70
2022/09/07 07:09:19;;;;;;;28.17;25.10;;;17.80;99.90;;;;;;5094394;28;20430;-69
2022/09/07 07:11:46;;;;;;;26.23;23.17;;;17.80;99.90;;;;;;5113637;28;20100;-70
2022/09/07 07:14:16;;;;;;;25.30;22.77;;;17.80;99.90;;;;;;5111481;28;20115;-70
2022/09/07 07:16:41;;;;;;;27.05;23.98;;;17.90;99.90;;;;;;5105000;28;20104;-70
2022/09/07 07:19:07;;;;;;;27.70;24.85;;;17.90;99.90;;;;;;5092561;28;20043;-70
2022/09/07 07:21:33;;;;;;;27.23;24.42;;;17.90;99.90;;;;;;5112152;28;20455;-70
2022/09/07 07:23:58;;;;;;;27.83;24.17;;;18.00;99.90;;;;;;5074912;28;20369;-70
2022/09/07 07:26:27;;;;;;;29.80;25.52;;;18.00;99.90;;;;;;5092833;28;20468;-70
2022/09/07 07:28:55;;;;;;;28.48;25.48;;;18.00;99.90;;;;;;5095771;28;20078;-71
2022/09/07 07:31:23;;;;;;;27.23;24.10;;;18.10;99.90;;;;;;5092697;28;20039;-70
2022/09/07 07:33:51;;;;;;;27.98;24.95;;;18.10;99.90;;;;;;5112880;28;20094;-70
2022/09/07 07:36:21;;;;;;;27.13;23.95;;;18.20;99.90;;;;;;5093828;28;20052;-69
2022/09/07 07:38:49;;;;;;;28.92;25.17;;;18.20;99.90;;;;;;5091724;28;20480;-69
2022/09/07 07:41:17;;;;;;;28.52;25.42;;;18.20;99.90;;;;;;5094474;28;20118;-70
2022/09/07 07:43:43;;;;;;;25.08;22.42;;;18.20;99.90;;;;;;5113535;28;20371;-69
2022/09/07 07:46:16;;;;;;;28.75;24.00;;;18.20;99.90;;;;;;5094727;28;20039;-69
2022/09/07 07:48:42;;;;;;;27.15;24.02;;;18.30;99.90;;;;;;5113139;28;20044;-69
2022/09/07 07:51:12;;;;;;;25.70;22.58;;;18.30;99.90;;;;;;5094353;28;20058;-70
2022/09/07 07:53:39;;;;;;;26.40;23.60;;;18.30;99.90;;;;;;5094677;28;20050;-69
2022/09/07 07:56:06;;;;;;;27.25;23.17;;;18.40;99.90;;;;;;5113102;28;20048;-69
2022/09/07 07:58:33;;;;;;;25.10;22.50;;;18.40;99.90;;;;;;5094789;28;20051;-70
2022/09/07 08:01:06;;;;;;;23.58;21.13;;;18.40;99.90;;;;;;5112909;28;20379;-69
2022/09/07 08:03:38;;;;;;;24.38;21.77;;;18.40;99.90;;;;;;5114899;28;20425;-70
2022/09/07 08:06:13;;;;;;;23.10;20.63;;;18.40;99.90;;;;;;5117008;28;20047;-70
2022/09/07 08:08:40;;;;;;;25.08;21.35;;;18.40;99.90;;;;;;5116610;28;20132;-71
2022/09/07 08:11:09;;;;;;;23.42;20.95;;;18.40;99.90;;;;;;5099199;28;20128;-70
2022/09/07 08:13:36;;;;;;;20.13;18.15;;;18.50;99.90;;;;;;5098612;28;20352;-68
2022/09/07 08:16:02;;;;;;;22.38;19.75;;;18.60;99.90;;;;;;5098217;28;20445;-69
2022/09/07 08:18:27;;;;;;;21.00;18.88;;;18.70;99.90;;;;;;5097151;28;20036;-69
2022/09/07 08:20:57;;;;;;;21.83;18.58;;;18.90;99.90;;;;;;5112537;28;20082;-69
2022/09/07 08:23:23;;;;;;;19.42;17.35;;;19.20;99.90;;;;;;5095154;28;20085;-69
2022/09/07 08:25:50;;;;;;;19.75;17.80;;;19.30;99.90;;;;;;5078135;28;20056;-69
2022/09/07 08:28:16;;;;;;;18.65;16.85;;;19.40;99.90;;;;;;5077901;28;20353;-69
2022/09/07 08:30:42;;;;;;;18.75;16.95;;;19.30;99.90;;;;;;5096102;28;20100;-68
2022/09/07 08:33:08;;;;;;;18.88;16.98;;;19.40;99.90;;;;;;5095383;28;20122;-68
2022/09/07 08:35:33;;;;;;;18.35;16.38;;;19.60;99.90;;;;;;5095441;28;20039;-69
2022/09/07 08:37:59;;;;;;;17.73;15.93;;;19.70;99.90;;;;;;5076602;28;20076;-68
2022/09/07 08:40:24;;;;;;;17.60;15.88;;;19.70;99.90;;;;;;5095299;28;20039;-69
2022/09/07 08:43:12;;;;;;;17.38;15.70;;;19.80;99.90;;;;;;5095819;28;20036;-69
2022/09/07 08:45:45;;;;;;;16.50;14.77;;;19.80;99.90;;;;;;5095586;28;20055;-68
2022/09/07 08:48:19;;;;;;;17.50;15.80;;;19.70;99.90;;;;;;5076447;28;20075;-68
2022/09/07 08:51:01;;;;;;;15.60;14.00;;;19.60;99.90;;;;;;5078009;28;20040;-68
2022/09/07 08:53:28;;;;;;;14.82;13.38;;;19.70;99.90;;;;;;5076869;28;20384;-68
2022/09/07 08:56:25;;;;;;;15.55;14.05;;;19.70;99.90;;;;;;5095035;28;20036;-69
2022/09/07 08:58:52;;;;;;;14.48;13.07;;;19.60;99.90;;;;;;5075932;28;20055;-68
2022/09/07 09:01:25;;;;;;;14.27;12.77;;;19.50;99.90;;;;;;5094703;28;20052;-68
2022/09/07 09:03:50;;;;;;;14.00;12.57;;;19.60;99.90;;;;;;5094075;28;20055;-68
2022/09/07 09:06:22;;;;;;;15.00;13.57;;;19.60;99.90;;;;;;5076541;28;20048;-69
2022/09/07 09:09:09;;;;;;;15.40;13.77;;;19.60;99.90;;;;;;5094320;28;20272;-68
2022/09/07 09:11:43;;;;;;;14.50;13.00;;;19.70;99.90;;;;;;5108541;28;20360;-68
2022/09/07 09:14:25;;;;;;;14.23;12.82;;;19.70;99.90;;;;;;5094292;28;20097;-68
2022/09/07 09:16:58;;;;;;;13.35;12.15;;;19.70;99.90;;;;;;5095242;28;20036;-68
2022/09/07 09:19:54;;;;;;;12.93;11.52;;;19.70;99.90;;;;;;5074840;28;20362;-69
2022/09/07 09:22:22;;;;;;;13.52;12.27;;;19.70;99.90;;;;;;5093613;28;20055;-68
2022/09/07 09:25:05;;;;;;;14.98;13.38;;;19.80;99.90;;;;;;5114920;28;20531;-68
2022/09/07 09:27:31;;;;;;;14.80;13.40;;;19.80;99.90;;;;;;5114138;28;20050;-69
2022/09/07 09:29:56;;;;;;;13.80;12.40;;;19.90;99.90;;;;;;5097013;28;20051;-69
2022/09/07 09:32:38;;;;;;;13.55;12.13;;;20.00;99.90;;;;;;5096205;28;20048;-69
2022/09/07 09:35:29;;;;;;;13.55;11.10;;;20.20;99.90;;;;;;5116821;27;20131;-69
2022/09/07 09:37:56;;;;;;;12.10;10.95;;;20.20;99.90;;;;;;5134969;27;20518;-69
2022/09/07 09:40:28;;;;;;;11.35;10.25;;;20.30;99.90;;;;;;5135044;27;20498;-69
2022/09/07 09:42:58;;;;;;;10.77;9.82;;;20.30;99.90;;;;;;5134838;27;20502;-68
2022/09/07 09:45:27;;;;;;;13.32;9.13;;;20.40;99.90;;;;;;5116529;27;20047;-69
2022/09/07 09:47:53;;;;;;;9.40;8.40;;;20.40;99.90;;;;;;5134934;27;20035;-69
2022/09/07 09:50:35;;;;;;;9.65;8.77;;;20.50;99.90;;;;;;5099388;27;20035;-68
2022/09/07 09:53:01;;;;;;;;;;;20.60;99.90;;;;;;5114591;27;20504;-69
2022/09/07 09:55:30;;;;;;;9.02;8.13;;;20.60;99.90;;;;;;5135044;27;19915;-69
2022/09/07 09:58:00;;;;;;;8.88;7.45;;;20.60;99.90;;;;;;5134818;27;20468;-69
2022/09/07 10:00:31;;;;;;;9.85;8.88;;;20.70;99.90;;;;;;5113893;27;20039;-68
2022/09/07 10:03:12;;;;;;;9.18;8.25;;;20.80;99.90;;;;;;5116625;27;20039;-69
2022/09/07 10:05:42;;;;;;;10.73;8.70;;;20.90;99.90;;;;;;5135248;27;20047;-67
2022/09/07 10:08:29;;;;;;;8.07;7.28;;;21.00;99.90;;;;;;5134491;27;20043;-68
2022/09/07 10:10:59;;;;;;;8.70;8.00;;;21.10;99.90;;;;;;5135175;27;20051;-67
2022/09/07 10:13:34;;;;;;;8.68;7.88;;;21.10;99.90;;;;;;5134182;27;20047;-70
2022/09/07 10:16:07;;;;;;;9.10;8.20;;;21.10;99.90;;;;;;5132251;27;20035;-68
2022/09/07 10:18:58;;;;;;;7.88;7.22;;;21.20;99.90;;;;;;5134301;27;20062;-68
2022/09/07 10:21:27;;;;;;;7.03;6.38;;;21.40;99.90;;;;;;5111564;28;20051;-68
2022/09/07 10:23:57;;;;;;;6.75;5.88;;;21.40;99.90;;;;;;5114173;28;20040;-69
2022/09/07 10:26:36;;;;;;;6.53;5.93;;;21.50;99.90;;;;;;5078426;28;20050;-68
2022/09/07 10:29:38;;;;;;;6.55;5.95;;;21.40;99.90;;;;;;5113833;28;20313;-69
2022/09/07 10:32:17;;;;;;;6.50;5.90;;;21.40;99.90;;;;;;5095496;28;20050;-69
2022/09/07 10:35:13;;;;;;;9.10;6.20;;;21.40;99.90;;;;;;5113814;28;20054;-69
2022/09/07 10:37:57;;;;;;;7.60;5.72;;;21.40;99.90;;;;;;5112247;28;20045;-69
2022/09/07 10:40:39;;;;;;;5.65;5.13;;;21.30;99.90;;;;;;5111391;28;20107;-68
2022/09/07 10:43:05;;;;;;;;;;;21.40;99.90;;;;;;5112660;28;20031;-68
2022/09/07 10:45:47;;;;;;;5.45;4.85;;;21.40;99.90;;;;;;5095014;28;19930;-69
2022/09/07 10:48:23;;;;;;;5.70;4.90;;;21.60;99.90;;;;;;5094307;28;20035;-69
2022/09/07 10:51:35;;;;;;;5.60;4.97;;;21.70;99.90;;;;;;5097439;28;20043;-71
2022/09/07 10:54:17;;;;;;;5.10;4.68;;;21.80;99.90;;;;;;5073218;28;20052;-68
2022/09/07 10:57:01;;;;;;;5.30;4.65;;;21.80;99.90;;;;;;5093366;28;20097;-68
2022/09/07 11:00:03;;;;;;;4.80;4.30;;;21.90;99.90;;;;;;5077401;28;20046;-69
2022/09/07 11:02:31;;;;;;;4.65;4.22;;;22.10;99.90;;;;;;5102202;27;20061;-69
2022/09/07 11:05:30;;;;;;;8.77;5.30;;;22.30;99.90;;;;;;5134332;27;20386;-69
2022/09/07 11:08:15;;;;;;;5.85;4.70;;;22.30;99.90;;;;;;5115229;27;20082;-69
2022/09/07 11:10:49;;;;;;;4.82;4.43;;;22.20;99.90;;;;;;5103805;28;20089;-69
2022/09/07 11:13:21;;;;;;;7.43;4.20;;;22.20;99.90;;;;;;5110779;28;20168;-69
2022/09/07 11:15:55;;;;;;;4.30;3.90;;;22.20;99.90;;;;;;5076866;28;20039;-68
2022/09/07 11:18:30;;;;;;;4.72;4.32;;;22.10;99.90;;;;;;5099554;27;20526;-69
2022/09/07 11:20:59;;;;;;;5.70;4.68;;;22.10;99.90;;;;;;5133740;27;20043;-69
2022/09/07 11:23:41;;;;;;;4.93;4.20;;;22.00;99.90;;;;;;5122553;27;20039;-69
2022/09/07 11:26:34;;;;;;;5.75;5.15;;;21.90;99.90;;;;;;5113387;28;20380;-68
2022/09/07 11:29:02;;;;;;;;;;;22.00;99.90;;;;;;5113328;28;20054;-69
2022/09/07 11:31:37;;;;;;;7.63;5.78;;;22.00;99.90;;;;;;5095212;28;19942;-69
2022/09/07 11:34:30;;;;;;;6.95;5.97;;;22.20;99.90;;;;;;5110916;28;20043;-69
2022/09/07 11:37:08;;;;;;;5.85;5.25;;;22.20;99.90;;;;;;5114240;28;20522;-68
2022/09/07 11:39:40;;;;;;;6.75;5.70;;;22.20;99.90;;;;;;5099641;28;20482;-68
2022/09/07 11:42:22;;;;;;;9.15;5.53;;;22.30;99.90;;;;;;5117306;28;20124;-69
2022/09/07 11:45:11;;;;;;;8.05;5.63;;;22.50;99.90;;;;;;5117445;28;20173;-69
2022/09/07 11:47:53;;;;;;;6.90;5.35;;;22.70;99.90;;;;;;5117003;28;20062;-67
2022/09/07 11:50:22;;;;;;;7.32;5.28;;;22.80;99.90;;;;;;5110196;28;20040;-67
2022/09/07 11:53:02;;;;;;;5.20;4.70;;;22.80;99.90;;;;;;5115590;28;20057;-68
2022/09/07 11:55:33;;;;;;;5.40;4.82;;;22.70;99.90;;;;;;5117019;28;20043;-67
2022/09/07 11:58:24;;;;;;;5.33;4.83;;;22.70;99.90;;;;;;5116573;28;20365;-67
2022/09/07 12:00:58;;;;;;;5.65;5.07;;;22.80;99.90;;;;;;5117257;28;20328;-67
2022/09/07 12:03:53;;;;;;;4.28;3.92;;;22.90;99.90;;;;;;5098749;28;20402;-67
2022/09/07 12:06:47;;;;;;;4.70;4.18;;;23.00;99.90;;;;;;5068761;28;20096;-67
2022/09/07 12:09:36;;;;;;;5.15;4.22;;;23.20;99.90;;;;;;5098312;28;20058;-68
2022/09/07 12:12:16;;;;;;;3.53;3.03;;;23.20;99.90;;;;;;5116792;28;20058;-67
2022/09/07 12:14:52;;;;;;;4.05;3.58;;;23.30;99.90;;;;;;5097658;28;20143;-67
2022/09/07 12:22:14;;;;;;;4.25;3.17;;;23.60;99.90;;;;;;5114108;27;20140;-68
2022/09/07 12:32:32;;;;;;;4.10;3.33;;;24.10;99.90;;;;;;5137303;27;20061;-68
2022/09/07 12:39:28;;;;;;;3.15;2.83;;;24.30;99.90;;;;;;5120068;27;20445;-69
2022/09/07 12:42:03;;;;;;;10.13;2.65;;;24.30;99.90;;;;;;5116107;28;20044;-68
2022/09/07 12:53:07;;;;;;;2.67;2.42;;;24.30;99.90;;;;;;5132877;27;20456;-68
2022/09/07 13:11:18;;;;;;;3.72;2.53;;;24.20;99.90;;;;;;5032949;28;20385;-69
2022/09/07 13:14:24;;;;;;;2.67;2.47;;;24.10;99.90;;;;;;5019461;28;20045;-70
2022/09/07 13:17:33;;;;;;;3.30;2.60;;;24.10;99.90;;;;;;5015164;28;20041;-69
2022/09/07 13:19:59;;;;;;;1.95;1.75;;;24.00;99.90;;;;;;5015103;28;20504;-69
2022/09/07 13:22:33;;;;;;;2.80;2.00;;;24.10;99.90;;;;;;5013120;28;20037;-70
2022/09/07 13:25:22;;;;;;;2.75;1.90;;;24.10;99.90;;;;;;5014871;28;20079;-67
2022/09/07 13:27:53;;;;;;;1.75;1.65;;;24.00;99.90;;;;;;5033322;28;20385;-65
2022/09/07 13:30:30;;;;;;;3.75;1.98;;;23.80;99.90;;;;;;5018843;28;20128;-68
2022/09/07 13:33:24;;;;;;;3.15;2.00;;;23.70;99.90;;;;;;5014340;28;20033;-68
2022/09/07 13:36:04;;;;;;;2.42;2.22;;;23.70;99.90;;;;;;5016646;28;20116;-67
2022/09/07 13:38:32;;;;;;;4.72;1.77;;;23.70;99.90;;;;;;5033715;28;20042;-67
2022/09/07 13:41:19;;;;;;;3.53;2.22;;;23.80;99.90;;;;;;5034112;28;20092;-67
2022/09/07 13:43:58;;;;;;;2.08;1.80;;;23.80;99.90;;;;;;5000290;28;20099;-68
2022/09/07 13:46:39;;;;;;;2.08;1.52;;;23.70;99.90;;;;;;5033775;28;20041;-67
2022/09/07 13:49:31;;;;;;;2.50;1.48;;;23.60;99.90;;;;;;5016281;28;20096;-67
2022/09/07 13:52:03;;;;;;;1.65;1.50;;;23.60;99.90;;;;;;5032004;28;20045;-68
2022/09/07 13:54:31;;;;;;;;;;;23.60;99.90;;;;;;5034755;28;20436;-69